createdAt,value
2022-08-21T00:01:07.203Z,17.5
2022-08-21T00:07:06.479Z,17.5
2022-08-21T00:13:06.471Z,17.4
2022-08-21T00:19:06.451Z,17.1
2022-08-21T00:25:06.467Z,17.3
2022-08-21T00:31:06.476Z,17.1
2022-08-21T00:37:06.490Z,16.5
2022-08-21T00:43:06.478Z,16.6
2022-08-21T00:49:06.476Z,16.8
2022-08-21T00:55:06.536Z,16.6
2022-08-21T01:01:08.725Z,16.5
2022-08-21T01:07:06.505Z,16.6
2022-08-21T01:13:06.505Z,16.2
2022-08-21T01:19:06.482Z,16.4
2022-08-21T01:25:06.483Z,16.3
2022-08-21T01:31:06.468Z,16.3
2022-08-21T01:37:06.483Z,16
2022-08-21T01:43:06.512Z,16.1
2022-08-21T01:49:06.465Z,16
2022-08-21T01:55:06.498Z,16.1
2022-08-21T02:01:06.603Z,16
2022-08-21T02:07:08.352Z,15.8
2022-08-21T02:13:06.484Z,15.7
2022-08-21T02:19:06.568Z,15.5
2022-08-21T02:25:06.498Z,15.3
2022-08-21T02:31:06.498Z,15.7
2022-08-21T02:37:06.928Z,15.7
2022-08-21T02:43:06.477Z,15.5
2022-08-21T02:49:06.512Z,15.3
2022-08-21T02:55:06.495Z,15.3
2022-08-21T03:01:06.503Z,15.3
2022-08-21T03:07:11.024Z,15.2
2022-08-21T03:13:06.500Z,15.2
2022-08-21T03:19:06.527Z,15.2
2022-08-21T03:25:06.952Z,15.1
2022-08-21T03:31:06.511Z,15
2022-08-21T03:37:06.488Z,14.9
2022-08-21T03:43:06.506Z,14.9
2022-08-21T03:49:06.496Z,14.8
2022-08-21T03:55:06.488Z,14.7
2022-08-21T04:01:06.500Z,14.7
2022-08-21T04:07:06.508Z,14.6
2022-08-21T04:13:06.496Z,14.5
2022-08-21T04:19:06.495Z,14.5
2022-08-21T04:25:06.493Z,14.4
2022-08-21T04:31:06.501Z,14.4
2022-08-21T04:37:06.514Z,14.4
2022-08-21T04:43:06.504Z,14.4
2022-08-21T04:49:06.562Z,14.2
2022-08-21T04:55:06.562Z,14.4
2022-08-21T05:01:06.567Z,14.3
2022-08-21T05:07:06.541Z,14.4
2022-08-21T05:13:06.556Z,14.4
2022-08-21T05:19:06.519Z,14.5
2022-08-21T05:25:10.159Z,14.7
2022-08-21T05:31:06.497Z,14.7
2022-08-21T05:37:07.749Z,14.8
2022-08-21T05:43:06.511Z,14.8
2022-08-21T05:49:06.497Z,15
2022-08-21T05:55:06.511Z,15.2
2022-08-21T06:01:06.535Z,15.3
2022-08-21T06:07:06.497Z,15.4
2022-08-21T06:13:06.513Z,15.7
2022-08-21T06:19:06.550Z,15.9
2022-08-21T06:25:06.578Z,16.1
2022-08-21T06:31:06.505Z,16.7
2022-08-21T06:37:06.520Z,17.6
2022-08-21T06:43:06.494Z,20.4
2022-08-21T06:49:06.518Z,22.7
2022-08-21T06:55:06.529Z,25.9
2022-08-21T07:01:06.591Z,25.7
2022-08-21T07:07:06.540Z,27.5
2022-08-21T07:13:06.917Z,29
2022-08-21T07:19:06.553Z,30.7
2022-08-21T07:25:06.545Z,30.9
2022-08-21T07:31:06.620Z,31.9
2022-08-21T07:37:10.092Z,32.5
2022-08-21T07:43:06.582Z,33.3
2022-08-21T07:49:06.604Z,33.8
2022-08-21T07:55:06.969Z,35.9
2022-08-21T08:01:06.682Z,34.5
2022-08-21T08:07:06.572Z,33.4
2022-08-21T08:13:06.585Z,35.5
2022-08-21T08:19:06.566Z,34.1
2022-08-21T08:25:09.504Z,33.7
2022-08-21T08:31:06.571Z,35.3
2022-08-21T08:37:06.578Z,35.8
2022-08-21T08:43:06.576Z,35.7
2022-08-21T08:49:06.570Z,35.9
2022-08-21T08:55:06.600Z,35.2
2022-08-21T09:01:06.616Z,35.6
2022-08-21T09:07:06.597Z,35.7
2022-08-21T09:13:06.584Z,35.5
2022-08-21T09:19:06.596Z,36.4
2022-08-21T09:25:06.595Z,35.6
2022-08-21T09:31:06.619Z,37.8
2022-08-21T09:37:06.611Z,36.3
2022-08-21T09:43:06.601Z,37
2022-08-21T09:49:06.804Z,36.1
2022-08-21T09:55:06.599Z,37.3
2022-08-21T10:01:06.684Z,34.9
2022-08-21T10:07:06.628Z,36.4
2022-08-21T10:13:06.668Z,36.4
2022-08-21T10:19:06.655Z,37.5
2022-08-21T10:25:06.616Z,38.1
2022-08-21T10:31:06.680Z,37.8
2022-08-21T10:37:10.022Z,38
2022-08-21T10:43:06.630Z,38.1
2022-08-21T10:49:06.725Z,36.2
2022-08-21T10:55:06.629Z,34.8
2022-08-21T11:01:06.749Z,36
2022-08-21T11:07:17.323Z,35
2022-08-21T11:13:06.640Z,34.5
2022-08-21T11:19:06.674Z,35.2
2022-08-21T11:25:06.638Z,31.4
2022-08-21T11:31:06.636Z,30.7
2022-08-21T11:37:06.661Z,30.6
2022-08-21T11:43:06.654Z,29.8
2022-08-21T11:49:06.664Z,29.8
2022-08-21T11:55:06.648Z,30.6
2022-08-21T12:01:06.666Z,30.5
2022-08-21T12:07:06.696Z,30.7
2022-08-21T12:13:06.761Z,30.8
2022-08-21T12:19:06.665Z,30.2
2022-08-21T12:25:06.656Z,30.3
2022-08-21T12:31:06.686Z,30
2022-08-21T12:37:06.678Z,30
2022-08-21T12:43:06.874Z,28.9
2022-08-21T12:49:06.681Z,29.7
2022-08-21T12:55:06.687Z,29.8
2022-08-21T13:01:06.678Z,28.8
2022-08-21T13:07:06.696Z,30
2022-08-21T13:13:12.777Z,30.1
2022-08-21T13:19:06.759Z,30.2
2022-08-21T13:25:07.474Z,29.2
2022-08-21T13:31:06.701Z,27.9
2022-08-21T13:37:06.706Z,29
2022-08-21T13:43:06.678Z,28.6
2022-08-21T13:49:06.734Z,28.2
2022-08-21T13:55:06.715Z,28.3
2022-08-21T14:01:06.947Z,28.9
2022-08-21T14:07:06.700Z,29.2
2022-08-21T14:13:06.722Z,29.1
2022-08-21T14:19:06.721Z,28.7
2022-08-21T14:25:06.727Z,28.3
2022-08-21T14:31:06.714Z,28.4
2022-08-21T14:37:06.728Z,28.2
2022-08-21T14:43:06.743Z,27.8
2022-08-21T14:49:06.744Z,26.9
2022-08-21T14:55:06.748Z,26.5
2022-08-21T15:01:06.894Z,26.6
2022-08-21T15:07:06.740Z,26.6
2022-08-21T15:13:06.729Z,26.6
2022-08-21T15:19:06.760Z,26.6
2022-08-21T15:25:06.753Z,26.9
2022-08-21T15:31:06.747Z,26.7
2022-08-21T15:37:06.758Z,27.2
2022-08-21T15:43:06.754Z,27.1
2022-08-21T15:49:06.748Z,26.9
2022-08-21T15:55:06.754Z,26.8
2022-08-21T16:01:06.833Z,26.8
2022-08-21T16:07:09.655Z,26.6
2022-08-21T16:13:06.752Z,26.1
2022-08-21T16:19:06.762Z,25.8
2022-08-21T16:25:06.756Z,25.6
2022-08-21T16:31:06.765Z,25.6
2022-08-21T16:37:06.751Z,25.6
2022-08-21T16:43:06.762Z,25.3
2022-08-21T16:49:06.755Z,25.8
2022-08-21T16:55:06.748Z,25.3
2022-08-21T17:01:06.806Z,25.4
2022-08-21T17:07:06.765Z,25.2
2022-08-21T17:13:09.708Z,25.3
2022-08-21T17:19:08.103Z,25
2022-08-21T17:25:06.768Z,25.1
2022-08-21T17:31:06.955Z,25
2022-08-21T17:37:06.786Z,24.9
2022-08-21T17:43:06.760Z,24.9
2022-08-21T17:49:06.787Z,24.6
2022-08-21T17:55:06.782Z,24.5
2022-08-21T18:01:06.840Z,24.6
2022-08-21T18:07:06.774Z,24.6
2022-08-21T18:13:06.763Z,24.3
2022-08-21T18:19:06.785Z,24.2
2022-08-21T18:25:06.787Z,23.9
2022-08-21T18:31:06.840Z,23.8
2022-08-21T18:37:06.897Z,23.5
2022-08-21T18:43:06.792Z,23.4
2022-08-21T18:49:06.806Z,23.3
2022-08-21T19:01:06.843Z,23.1
2022-08-21T19:07:06.856Z,22.8
2022-08-21T19:13:07.275Z,22.7
2022-08-21T19:19:06.818Z,22.5
2022-08-21T19:25:06.799Z,22.5
2022-08-21T19:31:06.807Z,22.2
2022-08-21T19:37:06.786Z,22.2
2022-08-21T19:43:09.787Z,21.9
2022-08-21T19:49:06.801Z,21.7
2022-08-21T19:55:06.801Z,21.7
2022-08-21T20:01:11.341Z,21.7
2022-08-21T20:07:08.147Z,21.6
2022-08-21T20:13:06.839Z,21.5
2022-08-21T20:19:06.844Z,21.4
2022-08-21T20:25:06.812Z,21.4
2022-08-21T20:31:09.606Z,21.4
2022-08-21T20:37:06.815Z,21.4
2022-08-21T20:43:06.814Z,21.1
2022-08-21T20:49:06.847Z,21.2
2022-08-21T20:55:06.805Z,21.1
2022-08-21T21:01:06.842Z,21
2022-08-21T21:07:06.840Z,21
2022-08-21T21:13:06.985Z,21
2022-08-21T21:19:06.819Z,21
2022-08-21T21:25:06.824Z,20.9
2022-08-21T21:31:06.827Z,20.8
2022-08-21T21:37:06.842Z,21
2022-08-21T21:43:06.850Z,20.9
2022-08-21T21:49:06.843Z,21.2
2022-08-21T21:55:06.821Z,21.2
2022-08-21T22:01:06.834Z,21.3
2022-08-21T22:07:06.846Z,21.2
2022-08-21T22:13:10.263Z,20.9
2022-08-21T22:19:06.853Z,21
2022-08-21T22:25:06.864Z,21.1
2022-08-21T22:31:06.841Z,20.8
2022-08-21T22:37:06.832Z,20.7
2022-08-21T22:43:07.191Z,20.7
2022-08-21T22:49:06.940Z,20.6
2022-08-21T22:55:06.871Z,20.5
2022-08-21T23:01:06.863Z,20.5
2022-08-21T23:07:06.874Z,20.4
2022-08-21T23:13:09.278Z,20.3
2022-08-21T23:19:06.860Z,20.1
2022-08-21T23:25:06.936Z,20
2022-08-21T23:31:06.855Z,20
2022-08-21T23:37:06.881Z,19.8
2022-08-21T23:43:06.861Z,19.7
2022-08-21T23:49:06.871Z,19.6
2022-08-21T23:55:06.855Z,19.6
